Time;durP1;ratioP1;P1;durP2;ratioP2;P2;SDS_P1;SDS_P2;PMS_P1;PMS_P2;Temp;Humidity;BMP_temperature;BMP_pressure;BME280_temperature;BME280_humidity;BME280_pressure;Samples;Min_cycle;Max_cycle;Signal;HPM_P1;HPM_P2
2023/07/20 00:01:18;;;;;;;2.90;1.30;;;20.40;94.80;;;;;;5029232;28;20236;-79
2023/07/20 00:03:43;;;;;;;3.33;1.67;;;20.40;95.00;;;;;;5012762;28;20632;-78
2023/07/20 00:06:09;;;;;;;4.13;1.93;;;20.40;95.10;;;;;;5029370;28;20174;-78
2023/07/20 00:08:36;;;;;;;4.50;1.50;;;20.40;95.20;;;;;;5029554;28;20181;-78
2023/07/20 00:11:02;;;;;;;3.10;1.70;;;20.40;95.40;;;;;;5028961;28;20181;-78
2023/07/20 00:13:28;;;;;;;3.50;1.27;;;20.40;95.50;;;;;;5029329;28;21014;-79
2023/07/20 00:15:53;;;;;;;3.87;1.43;;;20.40;95.60;;;;;;5029075;28;20594;-79
2023/07/20 00:18:21;;;;;;;3.63;1.10;;;20.40;95.80;;;;;;5032361;28;20606;-78
2023/07/20 00:20:47;;;;;;;4.13;1.50;;;20.40;96.00;;;;;;5012358;28;20209;-79
2023/07/20 00:23:13;;;;;;;4.07;1.30;;;20.50;96.20;;;;;;5030046;28;20585;-79
2023/07/20 00:25:38;;;;;;;7.50;1.63;;;20.50;96.40;;;;;;5030265;28;20922;-78
2023/07/20 00:28:04;;;;;;;3.70;1.50;;;20.50;96.40;;;;;;5030797;28;20181;-79
2023/07/20 00:30:30;;;;;;;3.60;1.57;;;20.60;96.50;;;;;;5028552;28;20181;-79
2023/07/20 00:32:55;;;;;;;2.43;1.20;;;20.60;96.70;;;;;;5028777;28;20674;-79
2023/07/20 00:35:22;;;;;;;2.10;1.20;;;20.70;96.80;;;;;;5012516;28;20206;-79
2023/07/20 00:37:48;;;;;;;3.97;1.60;;;20.70;96.80;;;;;;5030137;28;20642;-79
2023/07/20 00:40:13;;;;;;;7.90;1.23;;;20.80;96.90;;;;;;5028224;28;20696;-79
2023/07/20 00:42:39;;;;;;;2.17;1.43;;;20.80;97.00;;;;;;5029922;28;20170;-79
2023/07/20 00:45:06;;;;;;;3.17;1.13;;;20.80;97.10;;;;;;5029157;28;20229;-79
2023/07/20 00:47:32;;;;;;;2.90;1.33;;;20.90;97.10;;;;;;5012273;28;20595;-79
2023/07/20 00:49:58;;;;;;;2.70;1.30;;;20.90;97.10;;;;;;5030045;28;20608;-79
2023/07/20 00:52:25;;;;;;;3.93;1.40;;;20.90;97.20;;;;;;5029873;28;20623;-79
2023/07/20 00:54:52;;;;;;;2.57;1.27;;;20.90;97.30;;;;;;5015187;28;20193;-79
2023/07/20 00:57:19;;;;;;;2.60;1.30;;;20.90;97.40;;;;;;5028780;28;20584;-79
2023/07/20 00:59:45;;;;;;;2.30;1.10;;;20.90;97.50;;;;;;5028393;28;20572;-79
2023/07/20 01:02:11;;;;;;;4.37;1.77;;;20.90;97.60;;;;;;5028164;28;20646;-78
2023/07/20 01:04:37;;;;;;;4.43;1.27;;;20.80;97.60;;;;;;5028489;28;20620;-78
2023/07/20 01:07:24;;;;;;;3.30;1.67;;;20.80;97.80;;;;;;5028933;28;20170;-78
2023/07/20 01:10:08;;;;;;;4.43;1.77;;;20.80;98.40;;;;;;5011641;28;20580;-78
2023/07/20 01:12:47;;;;;;;4.30;1.30;;;20.80;98.50;;;;;;5029927;28;20572;-79
2023/07/20 01:15:13;;;;;;;3.30;1.10;;;20.70;98.60;;;;;;5021809;28;20751;-79
2023/07/20 01:17:39;;;;;;;4.00;1.40;;;20.80;98.50;;;;;;5029275;28;20695;-79
2023/07/20 01:20:10;;;;;;;2.57;1.40;;;20.80;98.70;;;;;;5028178;28;20592;-78
2023/07/20 01:22:54;;;;;;;3.50;1.23;;;20.80;99.10;;;;;;5028749;28;20975;-79
2023/07/20 01:25:33;;;;;;;6.57;1.57;;;20.80;99.00;;;;;;5028588;28;20746;-79
2023/07/20 01:28:23;;;;;;;3.20;1.43;;;20.80;99.10;;;;;;5012362;28;20646;-79
2023/07/20 01:31:20;;;;;;;3.93;1.37;;;20.80;99.60;;;;;;5030896;28;20576;-79
2023/07/20 01:33:47;;;;;;;4.17;1.70;;;20.80;99.70;;;;;;4996225;28;20604;-78
2023/07/20 01:36:14;;;;;;;2.50;1.30;;;20.80;99.50;;;;;;5011778;28;20627;-78
2023/07/20 01:38:41;;;;;;;3.30;1.40;;;20.80;99.60;;;;;;5028591;28;20596;-78
2023/07/20 01:41:08;;;;;;;2.90;1.30;;;20.70;99.70;;;;;;5011035;28;20616;-79
2023/07/20 01:43:34;;;;;;;2.13;1.20;;;20.70;99.90;;;;;;5011976;28;20623;-79
2023/07/20 01:46:00;;;;;;;2.70;1.20;;;20.70;99.90;;;;;;5027966;28;21179;-78
2023/07/20 01:48:27;;;;;;;3.90;1.00;;;20.70;99.90;;;;;;5029716;28;20671;-78
2023/07/20 01:50:52;;;;;;;3.60;1.10;;;20.60;99.90;;;;;;5028853;28;20679;-79
2023/07/20 01:53:18;;;;;;;2.53;1.13;;;20.60;99.90;;;;;;5029997;28;20169;-79
2023/07/20 01:55:44;;;;;;;4.73;1.33;;;20.60;99.90;;;;;;5015984;28;20189;-78
2023/07/20 01:58:09;;;;;;;1.90;1.27;;;20.60;99.90;;;;;;5014938;28;20224;-79
2023/07/20 02:00:38;;;;;;;2.27;1.13;;;20.50;99.90;;;;;;5031860;28;20567;-78
2023/07/20 02:03:04;;;;;;;2.43;1.60;;;20.50;99.90;;;;;;5015321;28;20565;-79
2023/07/20 02:05:30;;;;;;;3.10;1.20;;;20.40;99.90;;;;;;5033717;28;20646;-78
2023/07/20 02:07:56;;;;;;;1.83;1.00;;;20.40;99.90;;;;;;5035532;28;20576;-79
2023/07/20 02:10:22;;;;;;;2.30;1.20;;;20.40;99.90;;;;;;5031766;28;20583;-79
2023/07/20 02:12:47;;;;;;;2.63;1.70;;;20.40;99.90;;;;;;5014908;28;20618;-78
2023/07/20 02:15:16;;;;;;;2.50;1.70;;;20.40;99.90;;;;;;5015218;28;20703;-78
2023/07/20 02:17:42;;;;;;;2.63;1.30;;;20.40;99.90;;;;;;5031583;28;20710;-79
2023/07/20 02:20:10;;;;;;;2.30;1.17;;;20.30;99.90;;;;;;5031414;28;20576;-78
2023/07/20 02:22:37;;;;;;;2.37;1.17;;;20.30;99.90;;;;;;5031186;28;21032;-78
2023/07/20 02:25:05;;;;;;;3.27;1.70;;;20.20;99.90;;;;;;5031478;28;20776;-79
2023/07/20 02:27:31;;;;;;;3.23;1.27;;;20.20;99.90;;;;;;5032961;28;20961;-78
2023/07/20 02:29:57;;;;;;;2.40;1.40;;;20.10;99.90;;;;;;5030563;28;20580;-78
2023/07/20 02:32:22;;;;;;;2.80;1.60;;;20.00;99.90;;;;;;5014754;28;20235;-78
2023/07/20 02:34:48;;;;;;;2.73;1.40;;;19.90;99.90;;;;;;5032476;28;20542;-78
2023/07/20 02:37:14;;;;;;;4.90;1.47;;;19.90;99.90;;;;;;5014896;28;20181;-79
2023/07/20 02:39:40;;;;;;;3.37;2.30;;;19.80;99.90;;;;;;5030607;28;20527;-78
2023/07/20 02:42:06;;;;;;;2.60;1.47;;;19.80;99.90;;;;;;5031154;28;20321;-80
2023/07/20 02:44:32;;;;;;;3.53;1.90;;;19.70;99.90;;;;;;5033863;28;20606;-79
2023/07/20 02:46:57;;;;;;;2.70;1.73;;;19.70;99.90;;;;;;5032635;28;20668;-79
2023/07/20 02:49:23;;;;;;;4.00;1.63;;;19.60;99.90;;;;;;5013898;28;20174;-79
2023/07/20 02:51:49;;;;;;;2.40;1.50;;;19.60;99.90;;;;;;5032351;28;20637;-79
2023/07/20 02:54:15;;;;;;;3.50;1.90;;;19.50;99.90;;;;;;5032321;28;20197;-79
2023/07/20 02:56:40;;;;;;;3.17;2.00;;;19.50;99.90;;;;;;5030777;28;20251;-79
2023/07/20 02:59:06;;;;;;;5.13;1.93;;;19.50;99.90;;;;;;5030438;28;20608;-79
2023/07/20 03:01:32;;;;;;;2.80;1.80;;;19.40;99.90;;;;;;5031510;28;20210;-79
2023/07/20 03:03:58;;;;;;;3.20;1.60;;;19.40;99.90;;;;;;5030473;28;21040;-79
2023/07/20 03:06:24;;;;;;;2.67;1.63;;;19.30;99.90;;;;;;5031808;28;20563;-79
2023/07/20 03:08:51;;;;;;;2.97;1.30;;;19.30;99.90;;;;;;4997592;28;20170;-79
2023/07/20 03:11:18;;;;;;;4.53;1.60;;;19.30;99.90;;;;;;5029850;28;20577;-79
2023/07/20 03:13:44;;;;;;;3.50;1.63;;;19.20;99.90;;;;;;5030444;28;21221;-79
2023/07/20 03:16:15;;;;;;;3.63;1.60;;;19.20;99.90;;;;;;5013773;28;20596;-79
2023/07/20 03:18:41;;;;;;;6.20;1.43;;;19.20;99.90;;;;;;5014321;28;20614;-79
2023/07/20 03:21:11;;;;;;;2.80;1.60;;;19.20;99.90;;;;;;5016006;28;20638;-79
2023/07/20 03:23:37;;;;;;;3.00;1.60;;;19.20;99.90;;;;;;5013796;28;20690;-79
2023/07/20 03:26:04;;;;;;;4.30;1.87;;;19.20;99.90;;;;;;5030232;28;20615;-79
2023/07/20 03:28:30;;;;;;;4.70;1.97;;;19.20;99.90;;;;;;5030211;28;20592;-79
2023/07/20 03:30:57;;;;;;;3.13;1.50;;;19.20;99.90;;;;;;5029907;28;20588;-79
2023/07/20 03:33:29;;;;;;;4.10;1.73;;;19.20;99.90;;;;;;4997000;28;20189;-79
2023/07/20 03:35:56;;;;;;;8.00;2.13;;;19.10;99.90;;;;;;5030593;28;20711;-78
2023/07/20 03:38:23;;;;;;;3.63;1.30;;;19.20;99.90;;;;;;5030899;28;20612;-79
2023/07/20 03:40:56;;;;;;;6.60;1.60;;;19.20;99.90;;;;;;5030807;28;20620;-78
2023/07/20 03:43:26;;;;;;;4.53;2.23;;;19.20;99.90;;;;;;5012982;28;20607;-79
2023/07/20 03:45:52;;;;;;;2.00;1.20;;;19.30;99.90;;;;;;5030049;28;20643;-79
2023/07/20 03:48:21;;;;;;;3.43;1.83;;;19.30;99.90;;;;;;5029702;28;20580;-79
2023/07/20 03:50:48;;;;;;;3.40;1.43;;;19.30;99.90;;;;;;5029590;28;20220;-79
2023/07/20 03:53:15;;;;;;;3.83;1.70;;;19.40;99.90;;;;;;5029254;28;20595;-79
2023/07/20 03:55:50;;;;;;;6.33;1.77;;;19.40;99.90;;;;;;5013558;28;20584;-79
2023/07/20 03:58:17;;;;;;;3.47;1.43;;;19.40;99.90;;;;;;5016704;28;20634;-79
2023/07/20 04:00:47;;;;;;;2.17;1.20;;;19.40;99.90;;;;;;5012689;28;21190;-79
2023/07/20 04:03:14;;;;;;;3.30;1.93;;;19.50;99.90;;;;;;5030778;28;20632;-79
2023/07/20 04:05:40;;;;;;;3.23;1.50;;;19.50;99.90;;;;;;5030780;28;20600;-79
2023/07/20 04:08:06;;;;;;;2.77;1.57;;;19.50;99.90;;;;;;5029686;28;20669;-79
2023/07/20 04:10:31;;;;;;;4.33;1.40;;;19.50;99.90;;;;;;5028596;28;20583;-79
2023/07/20 04:12:57;;;;;;;3.70;1.27;;;19.50;99.90;;;;;;5029276;28;20188;-79
2023/07/20 04:15:23;;;;;;;3.50;1.30;;;19.60;99.90;;;;;;5028764;28;20203;-79
2023/07/20 04:17:49;;;;;;;2.97;1.50;;;19.60;99.90;;;;;;5013291;28;20173;-79
2023/07/20 04:20:14;;;;;;;2.90;1.70;;;19.60;99.90;;;;;;5012216;28;20173;-79
2023/07/20 04:22:40;;;;;;;4.27;1.50;;;19.70;99.90;;;;;;5012641;28;20635;-79
2023/07/20 04:25:09;;;;;;;3.27;1.20;;;19.70;99.90;;;;;;5012478;28;20212;-79
2023/07/20 04:27:36;;;;;;;4.33;1.90;;;19.70;99.90;;;;;;5030559;28;20592;-79
2023/07/20 04:30:03;;;;;;;2.23;1.20;;;19.80;99.90;;;;;;5028570;28;21191;-79
2023/07/20 04:32:30;;;;;;;2.20;1.40;;;19.80;99.90;;;;;;5028747;28;20703;-79
2023/07/20 04:34:56;;;;;;;3.00;1.30;;;19.80;99.90;;;;;;5016480;28;20669;-79
2023/07/20 04:37:22;;;;;;;4.03;1.47;;;19.90;99.90;;;;;;5028895;28;20612;-79
2023/07/20 04:39:48;;;;;;;4.83;1.43;;;19.90;99.90;;;;;;5028507;28;20283;-79
2023/07/20 04:42:15;;;;;;;3.00;1.40;;;19.90;99.90;;;;;;5028535;28;20919;-79
2023/07/20 04:44:41;;;;;;;3.90;1.30;;;20.00;99.90;;;;;;5013082;28;20707;-79
2023/07/20 04:47:08;;;;;;;6.07;1.60;;;20.00;99.90;;;;;;5012387;28;20588;-79
2023/07/20 04:49:37;;;;;;;2.00;1.27;;;20.10;99.90;;;;;;4996565;28;20592;-79
2023/07/20 04:52:03;;;;;;;2.73;1.30;;;20.10;99.90;;;;;;5010640;28;20600;-79
2023/07/20 04:54:29;;;;;;;2.50;1.67;;;20.10;99.90;;;;;;5029114;28;20201;-79
2023/07/20 04:56:55;;;;;;;5.40;2.00;;;20.20;99.90;;;;;;5030180;28;20578;-79
2023/07/20 04:59:22;;;;;;;3.40;1.40;;;20.20;99.90;;;;;;5006121;28;20247;-79
2023/07/20 05:01:47;;;;;;;4.07;1.60;;;20.30;99.90;;;;;;5012194;28;20656;-79
2023/07/20 05:04:15;;;;;;;2.50;2.10;;;20.30;99.90;;;;;;5028398;28;20202;-78
2023/07/20 05:06:40;;;;;;;4.10;1.93;;;20.40;99.90;;;;;;5029028;28;20584;-79
2023/07/20 05:09:09;;;;;;;2.90;1.60;;;20.40;99.90;;;;;;5028381;28;20272;-79
2023/07/20 05:11:34;;;;;;;5.10;2.30;;;20.40;99.90;;;;;;5014431;28;20178;-79
2023/07/20 05:14:01;;;;;;;5.03;2.10;;;20.40;99.90;;;;;;5028839;28;20643;-79
2023/07/20 05:16:28;;;;;;;9.77;3.70;;;20.50;99.90;;;;;;5028982;28;20654;-79
2023/07/20 05:18:57;;;;;;;4.10;2.23;;;20.50;99.90;;;;;;5028082;28;21052;-79
2023/07/20 05:21:23;;;;;;;6.30;2.20;;;20.50;99.90;;;;;;5011902;28;20632;-79
2023/07/20 05:23:48;;;;;;;4.63;2.13;;;20.50;99.90;;;;;;5028292;28;20647;-79
2023/07/20 05:26:15;;;;;;;6.73;2.47;;;20.60;99.90;;;;;;5029683;28;20912;-79
2023/07/20 05:28:40;;;;;;;4.67;2.50;;;20.60;99.90;;;;;;5033881;28;20567;-79
2023/07/20 05:31:06;;;;;;;8.13;2.33;;;20.60;99.90;;;;;;5033468;28;20170;-79
2023/07/20 05:33:32;;;;;;;6.67;2.30;;;20.60;99.90;;;;;;5032716;28;20592;-79
2023/07/20 05:35:57;;;;;;;4.67;2.17;;;20.70;99.90;;;;;;5032123;28;20182;-80
2023/07/20 05:38:23;;;;;;;4.77;2.70;;;20.70;99.90;;;;;;5032558;28;20260;-79
2023/07/20 05:40:49;;;;;;;5.87;2.47;;;20.70;99.90;;;;;;5032936;28;20217;-79
2023/07/20 05:43:15;;;;;;;4.10;3.00;;;20.80;99.90;;;;;;5032143;28;20265;-79
2023/07/20 05:45:45;;;;;;;6.83;3.17;;;20.80;99.90;;;;;;5032426;28;20240;-78
2023/07/20 05:48:11;;;;;;;4.60;3.03;;;20.90;99.90;;;;;;5035319;28;20541;-78
2023/07/20 05:50:38;;;;;;;5.63;2.90;;;20.90;99.90;;;;;;5031902;28;20587;-79
2023/07/20 05:53:03;;;;;;;5.80;3.27;;;21.00;99.90;;;;;;5032698;28;20580;-78
2023/07/20 05:55:29;;;;;;;5.87;3.20;;;21.10;99.90;;;;;;5029938;28;20619;-79
2023/07/20 05:57:55;;;;;;;4.73;2.57;;;21.20;99.90;;;;;;5016179;28;20182;-79
2023/07/20 06:00:26;;;;;;;5.67;3.30;;;21.40;99.90;;;;;;5032879;28;20177;-79
2023/07/20 06:02:53;;;;;;;6.57;3.60;;;21.60;99.90;;;;;;4998149;28;20612;-78
2023/07/20 06:05:20;;;;;;;5.50;3.93;;;21.90;99.90;;;;;;5031039;28;20634;-79
2023/07/20 06:07:45;;;;;;;7.30;4.00;;;22.10;99.90;;;;;;5014493;28;20627;-77
2023/07/20 06:10:11;;;;;;;7.73;3.17;;;22.20;99.90;;;;;;5030206;28;21165;-78
2023/07/20 06:12:37;;;;;;;4.13;2.47;;;22.30;99.90;;;;;;5029290;28;20173;-78
2023/07/20 06:15:04;;;;;;;7.30;3.60;;;22.40;99.90;;;;;;5031487;28;20280;-78
2023/07/20 06:17:30;;;;;;;15.80;4.80;;;22.40;99.90;;;;;;5032796;28;20583;-78
2023/07/20 06:19:55;;;;;;;7.57;4.37;;;22.50;99.90;;;;;;5030233;28;20626;-78
2023/07/20 06:22:21;;;;;;;7.30;3.27;;;22.60;99.90;;;;;;5030762;28;20734;-78
2023/07/20 06:24:47;;;;;;;5.77;4.40;;;22.60;99.90;;;;;;5035497;28;20732;-77
2023/07/20 06:27:12;;;;;;;7.43;3.77;;;22.60;99.90;;;;;;5031850;28;20169;-77
2023/07/20 06:29:38;;;;;;;3.40;2.37;;;22.60;99.90;;;;;;5013722;28;20173;-77
2023/07/20 06:32:05;;;;;;;7.07;4.10;;;22.60;99.90;;;;;;5031048;28;20740;-78
2023/07/20 06:34:31;;;;;;;6.00;4.30;;;22.60;99.90;;;;;;5032403;28;20201;-77
2023/07/20 06:36:56;;;;;;;5.77;4.40;;;22.50;99.90;;;;;;5032144;28;20607;-78
2023/07/20 06:39:22;;;;;;;6.07;4.50;;;22.60;99.90;;;;;;5031272;28;20243;-77
2023/07/20 06:41:48;;;;;;;4.50;3.80;;;23.00;99.90;;;;;;5031813;28;20243;-77
2023/07/20 06:44:13;;;;;;;10.17;4.77;;;23.60;99.90;;;;;;5031041;28;20194;-77
2023/07/20 06:46:39;;;;;;;4.77;3.53;;;24.40;99.90;;;;;;5030742;28;20199;-77
2023/07/20 06:49:08;;;;;;;4.87;3.50;;;25.00;99.90;;;;;;5031336;28;20217;-78
2023/07/20 06:51:33;;;;;;;5.43;3.23;;;25.30;99.90;;;;;;5030786;28;20181;-78
2023/07/20 06:53:59;;;;;;;7.17;3.97;;;25.50;99.90;;;;;;5030339;28;20619;-78
2023/07/20 06:56:25;;;;;;;4.03;3.40;;;25.80;99.90;;;;;;5014827;28;20211;-78
2023/07/20 06:58:50;;;;;;;6.50;3.93;;;25.80;99.90;;;;;;5030515;28;20204;-78
2023/07/20 07:01:16;;;;;;;3.97;2.60;;;25.70;99.90;;;;;;5032138;28;20715;-78
2023/07/20 07:03:43;;;;;;;4.33;2.83;;;25.60;99.90;;;;;;5029838;28;20262;-78
2023/07/20 07:06:10;;;;;;;5.63;3.30;;;25.30;99.90;;;;;;5030601;28;20612;-78
2023/07/20 07:08:35;;;;;;;4.73;3.00;;;25.10;99.90;;;;;;5031589;28;21154;-79
2023/07/20 07:11:01;;;;;;;8.90;3.60;;;24.80;99.90;;;;;;5029729;28;20691;-79
2023/07/20 07:13:27;;;;;;;2.90;2.50;;;24.70;99.90;;;;;;5030088;28;20662;-79
2023/07/20 07:15:53;;;;;;;3.13;2.83;;;24.80;99.90;;;;;;5030906;28;20205;-78
2023/07/20 07:18:20;;;;;;;6.27;3.07;;;25.10;99.90;;;;;;5014293;28;20583;-79
2023/07/20 07:20:52;;;;;;;3.70;3.03;;;25.30;99.90;;;;;;5030692;28;20198;-79
2023/07/20 07:23:18;;;;;;;5.00;3.00;;;25.30;99.90;;;;;;5029620;28;20603;-78
2023/07/20 07:25:44;;;;;;;4.33;2.80;;;25.20;99.90;;;;;;5031088;28;21116;-79
2023/07/20 07:28:10;;;;;;;4.73;3.17;;;25.10;99.90;;;;;;5030398;28;20174;-78
2023/07/20 07:30:36;;;;;;;5.40;3.30;;;24.90;99.90;;;;;;5029568;28;20174;-79
2023/07/20 07:33:01;;;;;;;5.33;3.03;;;24.70;99.90;;;;;;5030243;28;20572;-79
2023/07/20 07:35:27;;;;;;;8.07;3.97;;;24.60;99.90;;;;;;5013765;28;20687;-79
2023/07/20 07:37:53;;;;;;;3.23;2.63;;;24.60;99.90;;;;;;5032086;28;20180;-79
2023/07/20 07:40:18;;;;;;;5.70;3.50;;;24.60;99.90;;;;;;5029518;28;20173;-79
2023/07/20 07:42:44;;;;;;;4.30;2.37;;;24.70;99.90;;;;;;5029083;28;20267;-79
2023/07/20 07:45:10;;;;;;;5.20;2.90;;;24.70;99.90;;;;;;5029550;28;20677;-79
2023/07/20 07:47:36;;;;;;;3.50;2.33;;;24.90;99.90;;;;;;5013201;28;20832;-79
2023/07/20 07:50:02;;;;;;;6.70;2.37;;;25.10;99.90;;;;;;5028083;28;20174;-79
2023/07/20 07:52:28;;;;;;;4.67;2.77;;;25.40;99.90;;;;;;5031442;28;20612;-79
2023/07/20 07:54:54;;;;;;;3.07;1.77;;;26.00;99.90;;;;;;5029088;28;21194;-79
2023/07/20 07:57:20;;;;;;;2.90;2.10;;;26.70;99.90;;;;;;5030785;28;20564;-79
2023/07/20 07:59:45;;;;;;;3.67;2.50;;;27.30;99.90;;;;;;5029938;28;20177;-79
2023/07/20 08:02:11;;;;;;;3.00;1.70;;;27.40;99.90;;;;;;5030511;28;21244;-79
2023/07/20 08:04:37;;;;;;;2.10;1.53;;;27.40;99.20;;;;;;5028818;28;20975;-79
2023/07/20 08:07:04;;;;;;;4.13;2.17;;;27.30;98.40;;;;;;5030727;28;20265;-79
2023/07/20 08:09:30;;;;;;;3.77;1.80;;;27.10;97.50;;;;;;5028844;28;20170;-79
2023/07/20 08:11:55;;;;;;;2.03;1.50;;;27.00;97.30;;;;;;5029194;28;20600;-78
2023/07/20 08:14:21;;;;;;;2.87;1.83;;;27.30;98.30;;;;;;5031934;28;20649;-78
2023/07/20 08:16:47;;;;;;;5.07;1.50;;;27.90;99.00;;;;;;5029112;28;20542;-79
2023/07/20 08:19:13;;;;;;;2.10;1.40;;;28.70;99.40;;;;;;5029001;28;20178;-77
2023/07/20 08:21:38;;;;;;;2.30;1.37;;;29.60;98.80;;;;;;5029753;28;21209;-77
2023/07/20 08:24:04;;;;;;;15.23;1.77;;;30.40;97.80;;;;;;5029489;28;20707;-77
2023/07/20 08:26:30;;;;;;;3.30;1.60;;;31.10;96.20;;;;;;5029793;28;20182;-77
2023/07/20 08:28:56;;;;;;;3.77;1.03;;;32.00;95.50;;;;;;5029679;28;20578;-77
2023/07/20 08:31:22;;;;;;;3.40;0.90;;;32.80;94.00;;;;;;5030003;28;20200;-77
2023/07/20 08:33:48;;;;;;;2.60;1.13;;;33.50;92.40;;;;;;5012269;28;20627;-77
2023/07/20 08:36:14;;;;;;;1.90;0.87;;;34.20;88.80;;;;;;5029156;28;20174;-77
2023/07/20 08:38:39;;;;;;;1.77;0.90;;;34.70;85.20;;;;;;5028636;28;21234;-77
2023/07/20 08:41:05;;;;;;;2.03;1.20;;;35.00;80.80;;;;;;5028279;28;20511;-77
2023/07/20 08:43:33;;;;;;;2.17;1.10;;;35.40;76.80;;;;;;5028654;28;20200;-78
2023/07/20 08:45:59;;;;;;;2.63;0.90;;;35.90;74.20;;;;;;5029027;28;20653;-78
2023/07/20 08:48:26;;;;;;;1.63;0.70;;;36.20;72.30;;;;;;5028942;28;20580;-78
2023/07/20 08:50:57;;;;;;;2.87;0.90;;;36.60;69.40;;;;;;5032284;28;20600;-77
2023/07/20 08:53:23;;;;;;;2.43;0.73;;;36.80;65.80;;;;;;4995709;28;20589;-77
2023/07/20 08:55:54;;;;;;;2.83;1.00;;;36.80;62.90;;;;;;5028449;28;20594;-78
2023/07/20 08:58:20;;;;;;;2.27;0.80;;;36.60;58.60;;;;;;5029944;28;20560;-78
2023/07/20 09:00:50;;;;;;;2.10;0.70;;;36.70;58.90;;;;;;5028210;28;20587;-78
2023/07/20 09:03:16;;;;;;;4.17;1.43;;;37.00;58.40;;;;;;5033678;28;20582;-78
2023/07/20 09:05:41;;;;;;;2.33;1.17;;;37.30;58.10;;;;;;5015730;28;20568;-78
2023/07/20 09:08:07;;;;;;;1.77;0.63;;;37.40;55.90;;;;;;5032973;28;20174;-78
2023/07/20 09:10:33;;;;;;;1.60;0.77;;;37.70;55.30;;;;;;5031949;28;20256;-78
2023/07/20 09:12:59;;;;;;;1.80;0.70;;;37.90;54.60;;;;;;5032390;28;20188;-78
2023/07/20 09:15:25;;;;;;;4.33;0.70;;;37.90;53.20;;;;;;5034340;28;20247;-78
2023/07/20 09:17:53;;;;;;;1.87;0.70;;;37.60;51.40;;;;;;5032440;28;20178;-78
2023/07/20 09:20:20;;;;;;;2.00;1.07;;;37.50;51.10;;;;;;5015927;28;20592;-78
2023/07/20 09:22:46;;;;;;;1.63;0.70;;;37.20;50.10;;;;;;5033625;28;20616;-78
2023/07/20 09:25:14;;;;;;;1.40;0.70;;;36.80;49.50;;;;;;5034790;28;20623;-78
2023/07/20 09:27:42;;;;;;;2.83;0.90;;;36.40;49.50;;;;;;5032866;28;20594;-79
2023/07/20 09:30:11;;;;;;;1.90;0.80;;;36.10;49.50;;;;;;5033200;28;20682;-80
2023/07/20 09:32:43;;;;;;;3.90;1.00;;;35.80;49.40;;;;;;5018084;28;20769;-79
2023/07/20 09:35:22;;;;;;;1.97;0.70;;;35.30;48.90;;;;;;5019584;28;20625;-79
2023/07/20 09:38:01;;;;;;;2.33;0.80;;;34.80;48.80;;;;;;5036860;28;20577;-79
2023/07/20 09:40:27;;;;;;;2.33;0.93;;;34.20;49.10;;;;;;5033464;28;20648;-79
2023/07/20 09:42:59;;;;;;;2.33;0.80;;;33.60;49.00;;;;;;5035058;28;20582;-78
2023/07/20 09:45:42;;;;;;;1.93;0.90;;;33.50;49.70;;;;;;5024317;28;20638;-77
2023/07/20 09:48:09;;;;;;;3.97;1.10;;;33.80;51.20;;;;;;5032474;28;20610;-77
2023/07/20 09:50:50;;;;;;;2.20;0.90;;;34.10;51.50;;;;;;5030631;28;20607;-78
2023/07/20 09:53:17;;;;;;;1.70;0.80;;;34.10;49.60;;;;;;5014814;28;20595;-77
2023/07/20 09:55:47;;;;;;;2.43;0.70;;;33.80;48.60;;;;;;5031097;28;20594;-77
2023/07/20 09:58:14;;;;;;;1.60;0.83;;;33.50;48.50;;;;;;5032087;28;21166;-78
2023/07/20 10:00:44;;;;;;;2.13;0.70;;;33.40;48.70;;;;;;5030874;28;20582;-78
2023/07/20 10:03:12;;;;;;;1.93;0.80;;;33.60;49.10;;;;;;5033021;28;20759;-78
2023/07/20 10:05:42;;;;;;;2.00;0.83;;;34.00;49.60;;;;;;5034117;28;20584;-74
2023/07/20 10:08:12;;;;;;;2.03;0.93;;;34.50;50.10;;;;;;5032716;28;20585;-75
2023/07/20 10:10:41;;;;;;;1.70;0.60;;;35.30;50.30;;;;;;5030692;28;20588;-74
2023/07/20 10:13:13;;;;;;;2.13;0.73;;;35.80;49.60;;;;;;5030740;28;21491;-75
2023/07/20 10:16:06;;;;;;;2.03;0.90;;;36.00;48.30;;;;;;5014668;28;20643;-74
2023/07/20 10:18:37;;;;;;;1.60;0.60;;;35.90;47.20;;;;;;5018304;28;20964;-75
2023/07/20 10:21:07;;;;;;;1.90;0.80;;;35.60;46.00;;;;;;5031162;28;20586;-75
2023/07/20 10:23:34;;;;;;;2.57;0.67;;;35.00;44.90;;;;;;5031810;28;20627;-74
2023/07/20 10:26:02;;;;;;;1.53;0.70;;;34.50;45.10;;;;;;5030604;28;20630;-74
2023/07/20 10:28:28;;;;;;;2.23;0.60;;;34.10;44.80;;;;;;5031693;28;20640;-74
2023/07/20 10:30:54;;;;;;;1.40;0.57;;;33.70;44.90;;;;;;5031582;28;20670;-74
2023/07/20 10:33:21;;;;;;;1.50;0.60;;;33.30;44.60;;;;;;5030491;28;21035;-74
2023/07/20 10:36:00;;;;;;;1.70;0.70;;;32.90;44.90;;;;;;5043371;28;20649;-75
2023/07/20 10:38:46;;;;;;;1.50;0.60;;;32.50;44.70;;;;;;5045055;28;20618;-74
2023/07/20 10:41:20;;;;;;;1.60;0.60;;;32.40;45.10;;;;;;5049811;28;21091;-75
2023/07/20 10:43:46;;;;;;;1.77;0.80;;;32.70;46.60;;;;;;5052237;28;20721;-75
2023/07/20 10:46:13;;;;;;;2.10;0.70;;;32.90;46.60;;;;;;5023352;28;20628;-74
2023/07/20 10:49:04;;;;;;;2.83;0.60;;;32.90;46.20;;;;;;5012253;28;20592;-74
2023/07/20 10:51:38;;;;;;;1.80;0.57;;;32.80;45.70;;;;;;5009806;28;21208;-74
2023/07/20 10:54:17;;;;;;;1.50;0.60;;;32.80;45.60;;;;;;5018257;28;21459;-74
2023/07/20 10:56:44;;;;;;;1.63;0.73;;;32.90;46.00;;;;;;5031407;28;20582;-74
2023/07/20 10:59:20;;;;;;;1.90;0.60;;;32.90;45.80;;;;;;5030176;28;20594;-74
2023/07/20 11:01:49;;;;;;;1.30;0.50;;;32.90;45.70;;;;;;5030194;28;20920;-74
2023/07/20 11:04:16;;;;;;;1.60;0.50;;;33.00;45.60;;;;;;5031391;28;20707;-74
2023/07/20 11:06:55;;;;;;;7.80;0.70;;;32.70;44.80;;;;;;5030589;28;20588;-74
2023/07/20 11:09:25;;;;;;;2.50;0.50;;;32.40;44.20;;;;;;5029426;28;20596;-74
2023/07/20 11:12:10;;;;;;;1.77;0.50;;;32.10;44.30;;;;;;5013648;28;20638;-74
2023/07/20 11:14:59;;;;;;;1.40;0.53;;;31.70;44.20;;;;;;5031019;28;20610;-74
2023/07/20 11:17:31;;;;;;;3.43;0.90;;;31.50;44.30;;;;;;5030302;28;20609;-74
2023/07/20 11:20:00;;;;;;;1.90;0.60;;;31.20;44.70;;;;;;5029252;28;20599;-74
2023/07/20 11:22:27;;;;;;;1.83;0.60;;;31.00;45.20;;;;;;5030994;28;20600;-74
2023/07/20 11:24:56;;;;;;;1.40;0.60;;;30.90;45.90;;;;;;5030485;28;20667;-74
2023/07/20 11:27:22;;;;;;;1.83;0.73;;;30.80;45.70;;;;;;5030167;28;20687;-74
2023/07/20 11:29:48;;;;;;;1.33;0.60;;;30.70;45.90;;;;;;5029615;28;20683;-74
2023/07/20 11:32:21;;;;;;;1.70;0.60;;;30.60;46.10;;;;;;5029245;28;20204;-74
2023/07/20 11:34:47;;;;;;;1.70;0.60;;;30.50;46.20;;;;;;5031136;28;21005;-74
2023/07/20 11:37:13;;;;;;;1.40;0.60;;;30.40;46.40;;;;;;5028993;28;20576;-74
2023/07/20 11:39:39;;;;;;;1.40;0.60;;;30.40;46.60;;;;;;5029227;28;20568;-74
2023/07/20 11:42:06;;;;;;;1.67;0.57;;;30.40;46.80;;;;;;5030357;28;20180;-74
2023/07/20 11:44:33;;;;;;;1.30;0.50;;;30.50;47.30;;;;;;5029882;28;20642;-74
2023/07/20 11:47:11;;;;;;;3.50;0.60;;;30.60;47.40;;;;;;5016254;28;20588;-74
2023/07/20 11:49:39;;;;;;;1.40;0.57;;;30.60;47.20;;;;;;5010118;28;20645;-74
2023/07/20 11:52:15;;;;;;;1.30;0.50;;;30.80;47.00;;;;;;4993193;28;20647;-74
2023/07/20 11:54:41;;;;;;;2.07;0.53;;;30.80;46.60;;;;;;5023459;28;20624;-74
2023/07/20 11:57:07;;;;;;;1.57;0.70;;;31.00;47.00;;;;;;5029020;28;20594;-74
2023/07/20 11:59:33;;;;;;;1.70;0.60;;;31.10;46.70;;;;;;5028621;28;21131;-75
2023/07/20 12:02:02;;;;;;;1.53;0.70;;;31.10;46.40;;;;;;5030426;28;20179;-75
2023/07/20 12:04:28;;;;;;;2.17;0.60;;;31.10;45.70;;;;;;5012326;28;20627;-75
2023/07/20 12:06:55;;;;;;;2.70;1.33;;;30.90;45.30;;;;;;5030200;28;20607;-75
2023/07/20 12:09:21;;;;;;;1.40;0.60;;;30.70;45.30;;;;;;5012280;28;20648;-75
2023/07/20 12:11:49;;;;;;;2.20;0.50;;;30.40;44.60;;;;;;5012056;28;20626;-76
2023/07/20 12:14:15;;;;;;;1.50;0.60;;;30.00;44.50;;;;;;5029003;28;20627;-76
2023/07/20 12:16:41;;;;;;;2.63;0.60;;;29.70;44.60;;;;;;5030002;28;20585;-77
2023/07/20 12:19:08;;;;;;;1.90;0.60;;;29.40;45.00;;;;;;5028496;28;20635;-77
2023/07/20 12:21:39;;;;;;;2.90;0.50;;;29.10;45.20;;;;;;5028150;28;20181;-77
2023/07/20 12:24:06;;;;;;;1.83;0.53;;;28.80;45.40;;;;;;5030252;28;21057;-76
2023/07/20 12:26:33;;;;;;;1.50;0.57;;;28.60;45.70;;;;;;5028791;28;20695;-75
2023/07/20 12:28:59;;;;;;;1.53;0.60;;;28.30;45.70;;;;;;5030955;28;20564;-75
2023/07/20 12:31:26;;;;;;;4.80;0.67;;;28.00;45.80;;;;;;5030152;28;20671;-76
2023/07/20 12:33:52;;;;;;;1.50;0.63;;;27.80;46.20;;;;;;5028544;28;20607;-75
2023/07/20 12:36:19;;;;;;;2.33;0.70;;;27.50;46.40;;;;;;5029331;28;20608;-76
2023/07/20 12:38:45;;;;;;;1.93;0.60;;;27.30;46.70;;;;;;5011512;28;20596;-76
2023/07/20 12:41:15;;;;;;;1.77;0.70;;;27.10;46.80;;;;;;5029584;28;20938;-75
2023/07/20 12:43:42;;;;;;;2.03;0.67;;;26.90;47.60;;;;;;5029691;28;20626;-75
2023/07/20 12:46:09;;;;;;;2.60;0.60;;;26.80;47.50;;;;;;5009053;28;20590;-75
2023/07/20 12:48:37;;;;;;;1.43;0.60;;;26.60;47.90;;;;;;5025475;28;20605;-75